sensor_id;sensor_type;location;lat;lon;timestamp;temperature;humidity
29201;DHT22;16244;51.956;12.980;2023-04-03T00:01:01;0.60;93.90
29201;DHT22;16244;51.956;12.980;2023-04-03T00:03:31;0.60;94.10
29201;DHT22;16244;51.956;12.980;2023-04-03T00:05:58;0.50;94.20
29201;DHT22;16244;51.956;12.980;2023-04-03T00:08:49;0.50;94.60
29201;DHT22;16244;51.956;12.980;2023-04-03T00:11:18;0.50;94.40
29201;DHT22;16244;51.956;12.980;2023-04-03T00:13:46;0.50;94.60
29201;DHT22;16244;51.956;12.980;2023-04-03T00:16:18;0.40;94.70
29201;DHT22;16244;51.956;12.980;2023-04-03T00:19:00;0.40;94.70
29201;DHT22;16244;51.956;12.980;2023-04-03T00:21:32;0.30;95.10
29201;DHT22;16244;51.956;12.980;2023-04-03T00:24:00;0.30;95.30
29201;DHT22;16244;51.956;12.980;2023-04-03T00:26:29;0.30;95.20
29201;DHT22;16244;51.956;12.980;2023-04-03T00:28:56;0.30;95.20
29201;DHT22;16244;51.956;12.980;2023-04-03T00:31:25;0.30;95.30
29201;DHT22;16244;51.956;12.980;2023-04-03T00:33:52;0.20;95.60
29201;DHT22;16244;51.956;12.980;2023-04-03T00:36:20;0.30;95.50
29201;DHT22;16244;51.956;12.980;2023-04-03T00:38:49;0.20;95.40
29201;DHT22;16244;51.956;12.980;2023-04-03T00:41:17;0.20;95.70
29201;DHT22;16244;51.956;12.980;2023-04-03T00:43:46;0.10;95.90
29201;DHT22;16244;51.956;12.980;2023-04-03T00:46:14;0.20;96.10
29201;DHT22;16244;51.956;12.980;2023-04-03T00:48:59;0.10;96.20
29201;DHT22;16244;51.956;12.980;2023-04-03T00:51:36;0.10;96.20
29201;DHT22;16244;51.956;12.980;2023-04-03T00:54:11;0.10;96.20
29201;DHT22;16244;51.956;12.980;2023-04-03T00:56:44;0.10;96.30
29201;DHT22;16244;51.956;12.980;2023-04-03T00:59:15;0.10;96.10
29201;DHT22;16244;51.956;12.980;2023-04-03T01:01:46;0.10;96.10
29201;DHT22;16244;51.956;12.980;2023-04-03T01:04:28;0.10;95.80
29201;DHT22;16244;51.956;12.980;2023-04-03T01:07:02;0.10;95.90
29201;DHT22;16244;51.956;12.980;2023-04-03T01:09:33;0.00;95.90
29201;DHT22;16244;51.956;12.980;2023-04-03T01:12:16;-0.10;96.40
29201;DHT22;16244;51.956;12.980;2023-04-03T01:14:46;-0.10;96.60
29201;DHT22;16244;51.956;12.980;2023-04-03T01:17:31;-0.10;96.40
29201;DHT22;16244;51.956;12.980;2023-04-03T01:23:24;-0.20;96.70
29201;DHT22;16244;51.956;12.980;2023-04-03T01:25:58;-0.30;96.90
29201;DHT22;16244;51.956;12.980;2023-04-03T01:28:30;-0.40;97.20
29201;DHT22;16244;51.956;12.980;2023-04-03T01:31:02;-0.40;97.30
29201;DHT22;16244;51.956;12.980;2023-04-03T01:33:35;-0.40;97.10
29201;DHT22;16244;51.956;12.980;2023-04-03T01:36:18;-0.40;97.20
29201;DHT22;16244;51.956;12.980;2023-04-03T01:38:48;-0.40;97.20
29201;DHT22;16244;51.956;12.980;2023-04-03T01:41:17;-0.40;97.10
29201;DHT22;16244;51.956;12.980;2023-04-03T01:43:44;-0.40;97.30
29201;DHT22;16244;51.956;12.980;2023-04-03T01:46:11;-0.40;97.40
29201;DHT22;16244;51.956;12.980;2023-04-03T01:48:44;-0.40;97.40
29201;DHT22;16244;51.956;12.980;2023-04-03T01:51:13;-0.40;97.00
29201;DHT22;16244;51.956;12.980;2023-04-03T01:53:47;-0.40;97.40
29201;DHT22;16244;51.956;12.980;2023-04-03T01:56:16;-0.30;97.10
29201;DHT22;16244;51.956;12.980;2023-04-03T01:58:44;-0.30;97.00
29201;DHT22;16244;51.956;12.980;2023-04-03T02:01:13;-0.30;96.90
29201;DHT22;16244;51.956;12.980;2023-04-03T02:03:45;-0.30;96.70
29201;DHT22;16244;51.956;12.980;2023-04-03T02:06:14;-0.30;96.80
29201;DHT22;16244;51.956;12.980;2023-04-03T02:08:43;-0.40;96.80
29201;DHT22;16244;51.956;12.980;2023-04-03T02:11:10;-0.50;96.90
29201;DHT22;16244;51.956;12.980;2023-04-03T02:13:37;-0.50;97.10
29201;DHT22;16244;51.956;12.980;2023-04-03T02:16:07;-0.50;97.20
29201;DHT22;16244;51.956;12.980;2023-04-03T02:18:36;-0.50;97.00
29201;DHT22;16244;51.956;12.980;2023-04-03T02:21:09;-0.50;96.80
29201;DHT22;16244;51.956;12.980;2023-04-03T02:23:41;-0.40;97.10
29201;DHT22;16244;51.956;12.980;2023-04-03T02:26:10;-0.50;96.80
29201;DHT22;16244;51.956;12.980;2023-04-03T02:28:38;-0.50;96.90
29201;DHT22;16244;51.956;12.980;2023-04-03T02:31:07;-0.50;97.10
29201;DHT22;16244;51.956;12.980;2023-04-03T02:33:35;-0.50;97.10
29201;DHT22;16244;51.956;12.980;2023-04-03T02:36:05;-0.60;96.90
29201;DHT22;16244;51.956;12.980;2023-04-03T02:38:34;-0.60;97.50
29201;DHT22;16244;51.956;12.980;2023-04-03T02:41:02;-0.70;97.40
29201;DHT22;16244;51.956;12.980;2023-04-03T02:43:32;-0.70;97.30
29201;DHT22;16244;51.956;12.980;2023-04-03T02:45:59;-0.70;97.40
29201;DHT22;16244;51.956;12.980;2023-04-03T02:48:28;-0.70;97.40
29201;DHT22;16244;51.956;12.980;2023-04-03T02:50:57;-0.80;97.40
29201;DHT22;16244;51.956;12.980;2023-04-03T02:53:25;-0.80;97.60
29201;DHT22;16244;51.956;12.980;2023-04-03T02:55:55;-0.70;97.30
29201;DHT22;16244;51.956;12.980;2023-04-03T02:58:28;-0.70;97.30
29201;DHT22;16244;51.956;12.980;2023-04-03T03:01:11;-0.70;97.40
29201;DHT22;16244;51.956;12.980;2023-04-03T03:03:38;-0.70;97.40
29201;DHT22;16244;51.956;12.980;2023-04-03T03:06:07;-0.70;97.30
29201;DHT22;16244;51.956;12.980;2023-04-03T03:08:37;-0.60;97.10
29201;DHT22;16244;51.956;12.980;2023-04-03T03:11:07;-0.70;96.80
29201;DHT22;16244;51.956;12.980;2023-04-03T03:13:34;-0.80;96.90
29201;DHT22;16244;51.956;12.980;2023-04-03T03:16:03;-0.70;97.10
29201;DHT22;16244;51.956;12.980;2023-04-03T03:18:31;-0.70;96.90
29201;DHT22;16244;51.956;12.980;2023-04-03T03:21:00;-0.70;96.70
29201;DHT22;16244;51.956;12.980;2023-04-03T03:23:29;-0.70;96.60
29201;DHT22;16244;51.956;12.980;2023-04-03T03:26:00;-0.70;96.70
29201;DHT22;16244;51.956;12.980;2023-04-03T03:28:31;-0.80;96.90
29201;DHT22;16244;51.956;12.980;2023-04-03T03:31:02;-0.80;96.90
29201;DHT22;16244;51.956;12.980;2023-04-03T03:33:30;-0.80;96.80
29201;DHT22;16244;51.956;12.980;2023-04-03T03:35:59;-0.80;96.80
29201;DHT22;16244;51.956;12.980;2023-04-03T03:38:28;-0.70;96.80
29201;DHT22;16244;51.956;12.980;2023-04-03T03:40:56;-0.70;96.80
29201;DHT22;16244;51.956;12.980;2023-04-03T03:43:23;-0.80;96.80
29201;DHT22;16244;51.956;12.980;2023-04-03T03:46:10;-0.80;96.80
29201;DHT22;16244;51.956;12.980;2023-04-03T03:48:53;-0.80;97.00
29201;DHT22;16244;51.956;12.980;2023-04-03T03:51:22;-0.80;97.10
29201;DHT22;16244;51.956;12.980;2023-04-03T03:53:53;-0.90;96.80
29201;DHT22;16244;51.956;12.980;2023-04-03T03:56:21;-0.90;97.00
29201;DHT22;16244;51.956;12.980;2023-04-03T03:58:48;-0.90;97.20
29201;DHT22;16244;51.956;12.980;2023-04-03T04:01:17;-0.90;96.80
29201;DHT22;16244;51.956;12.980;2023-04-03T04:03:45;-0.80;96.80
29201;DHT22;16244;51.956;12.980;2023-04-03T04:06:17;-0.80;96.80
29201;DHT22;16244;51.956;12.980;2023-04-03T04:08:44;-0.70;96.80
29201;DHT22;16244;51.956;12.980;2023-04-03T04:11:11;-0.80;96.70
29201;DHT22;16244;51.956;12.980;2023-04-03T04:13:39;-0.80;96.70
29201;DHT22;16244;51.956;12.980;2023-04-03T04:16:07;-0.80;96.50
29201;DHT22;16244;51.956;12.980;2023-04-03T04:18:35;-0.80;96.60
29201;DHT22;16244;51.956;12.980;2023-04-03T04:21:03;-0.80;96.80
29201;DHT22;16244;51.956;12.980;2023-04-03T04:23:30;-0.80;96.80
29201;DHT22;16244;51.956;12.980;2023-04-03T04:25:58;-0.70;96.70
29201;DHT22;16244;51.956;12.980;2023-04-03T04:28:25;-0.80;96.50
29201;DHT22;16244;51.956;12.980;2023-04-03T04:30:53;-0.90;96.40
29201;DHT22;16244;51.956;12.980;2023-04-03T04:33:20;-0.80;96.70
29201;DHT22;16244;51.956;12.980;2023-04-03T04:35:49;-0.90;96.70
29201;DHT22;16244;51.956;12.980;2023-04-03T04:38:17;-0.90;97.10
29201;DHT22;16244;51.956;12.980;2023-04-03T04:40:46;-0.90;97.00
29201;DHT22;16244;51.956;12.980;2023-04-03T04:43:14;-0.90;96.60
29201;DHT22;16244;51.956;12.980;2023-04-03T04:45:41;-0.90;96.60
29201;DHT22;16244;51.956;12.980;2023-04-03T04:48:09;-0.80;96.80
29201;DHT22;16244;51.956;12.980;2023-04-03T04:50:37;-0.90;96.90
29201;DHT22;16244;51.956;12.980;2023-04-03T04:53:06;-0.80;96.90
29201;DHT22;16244;51.956;12.980;2023-04-03T04:55:33;-0.90;96.80
29201;DHT22;16244;51.956;12.980;2023-04-03T04:58:00;-0.90;96.70
29201;DHT22;16244;51.956;12.980;2023-04-03T05:00:28;-0.90;97.00
29201;DHT22;16244;51.956;12.980;2023-04-03T05:02:55;-1.00;97.10
29201;DHT22;16244;51.956;12.980;2023-04-03T05:05:23;-0.90;97.20
29201;DHT22;16244;51.956;12.980;2023-04-03T05:07:50;-0.90;97.20
29201;DHT22;16244;51.956;12.980;2023-04-03T05:10:19;-0.90;97.30
29201;DHT22;16244;51.956;12.980;2023-04-03T05:12:46;-0.80;97.40
29201;DHT22;16244;51.956;12.980;2023-04-03T05:15:14;-0.80;97.60
29201;DHT22;16244;51.956;12.980;2023-04-03T05:17:41;-0.90;97.50
29201;DHT22;16244;51.956;12.980;2023-04-03T05:20:10;-0.80;97.60
29201;DHT22;16244;51.956;12.980;2023-04-03T05:22:37;-0.80;97.60
29201;DHT22;16244;51.956;12.980;2023-04-03T05:25:05;-0.70;97.70
29201;DHT22;16244;51.956;12.980;2023-04-03T05:27:34;-0.70;97.60
29201;DHT22;16244;51.956;12.980;2023-04-03T05:30:02;-0.60;97.70
29201;DHT22;16244;51.956;12.980;2023-04-03T05:32:30;-0.60;97.80
29201;DHT22;16244;51.956;12.980;2023-04-03T05:34:57;-0.50;97.70
29201;DHT22;16244;51.956;12.980;2023-04-03T05:37:25;-0.50;97.60
29201;DHT22;16244;51.956;12.980;2023-04-03T05:39:52;-0.40;97.30
29201;DHT22;16244;51.956;12.980;2023-04-03T05:42:20;-0.30;97.60
29201;DHT22;16244;51.956;12.980;2023-04-03T05:44:48;-0.30;97.40
29201;DHT22;16244;51.956;12.980;2023-04-03T05:47:16;-0.30;97.30
29201;DHT22;16244;51.956;12.980;2023-04-03T05:49:44;-0.20;97.20
29201;DHT22;16244;51.956;12.980;2023-04-03T05:52:18;-0.20;96.90
29201;DHT22;16244;51.956;12.980;2023-04-03T05:54:47;-0.20;97.00
29201;DHT22;16244;51.956;12.980;2023-04-03T05:57:14;-0.10;97.10
29201;DHT22;16244;51.956;12.980;2023-04-03T05:59:42;0.00;96.60
29201;DHT22;16244;51.956;12.980;2023-04-03T06:02:12;0.00;96.60
29201;DHT22;16244;51.956;12.980;2023-04-03T06:04:40;0.20;96.50
29201;DHT22;16244;51.956;12.980;2023-04-03T06:07:11;0.30;96.00
29201;DHT22;16244;51.956;12.980;2023-04-03T06:09:38;0.30;95.90
29201;DHT22;16244;51.956;12.980;2023-04-03T06:12:06;0.40;95.60
29201;DHT22;16244;51.956;12.980;2023-04-03T06:14:34;0.50;95.80
29201;DHT22;16244;51.956;12.980;2023-04-03T06:17:02;0.60;95.30
29201;DHT22;16244;51.956;12.980;2023-04-03T06:19:31;0.80;95.00
29201;DHT22;16244;51.956;12.980;2023-04-03T06:21:59;0.90;94.90
29201;DHT22;16244;51.956;12.980;2023-04-03T06:24:26;1.00;94.20
29201;DHT22;16244;51.956;12.980;2023-04-03T06:26:54;1.10;94.30
29201;DHT22;16244;51.956;12.980;2023-04-03T06:29:22;1.20;93.40
29201;DHT22;16244;51.956;12.980;2023-04-03T06:31:50;1.30;92.80
29201;DHT22;16244;51.956;12.980;2023-04-03T06:34:18;1.40;93.20
29201;DHT22;16244;51.956;12.980;2023-04-03T06:36:47;1.50;93.00
29201;DHT22;16244;51.956;12.980;2023-04-03T06:39:18;1.50;92.80
29201;DHT22;16244;51.956;12.980;2023-04-03T06:41:47;1.60;92.40
29201;DHT22;16244;51.956;12.980;2023-04-03T06:44:15;1.70;92.30
29201;DHT22;16244;51.956;12.980;2023-04-03T06:46:42;1.80;91.90
29201;DHT22;16244;51.956;12.980;2023-04-03T06:49:10;1.80;91.50
29201;DHT22;16244;51.956;12.980;2023-04-03T06:51:38;1.90;91.40
29201;DHT22;16244;51.956;12.980;2023-04-03T06:54:07;1.90;91.30
29201;DHT22;16244;51.956;12.980;2023-04-03T06:56:35;2.10;91.20
29201;DHT22;16244;51.956;12.980;2023-04-03T06:59:03;2.10;91.10
29201;DHT22;16244;51.956;12.980;2023-04-03T07:01:31;2.20;90.60
29201;DHT22;16244;51.956;12.980;2023-04-03T07:03:58;2.30;90.30
29201;DHT22;16244;51.956;12.980;2023-04-03T07:06:26;2.50;91.00
29201;DHT22;16244;51.956;12.980;2023-04-03T07:08:54;2.70;89.20
29201;DHT22;16244;51.956;12.980;2023-04-03T07:11:23;2.60;87.80
29201;DHT22;16244;51.956;12.980;2023-04-03T07:13:51;2.80;87.90
29201;DHT22;16244;51.956;12.980;2023-04-03T07:16:18;2.90;85.50
29201;DHT22;16244;51.956;12.980;2023-04-03T07:18:46;2.90;84.90
29201;DHT22;16244;51.956;12.980;2023-04-03T07:21:14;3.00;84.30
29201;DHT22;16244;51.956;12.980;2023-04-03T07:23:41;3.10;83.60
29201;DHT22;16244;51.956;12.980;2023-04-03T07:26:08;3.20;81.90
29201;DHT22;16244;51.956;12.980;2023-04-03T07:28:37;3.10;80.30
29201;DHT22;16244;51.956;12.980;2023-04-03T07:31:10;3.40;80.40
29201;DHT22;16244;51.956;12.980;2023-04-03T07:33:39;3.50;80.70
29201;DHT22;16244;51.956;12.980;2023-04-03T07:36:08;3.40;80.00
29201;DHT22;16244;51.956;12.980;2023-04-03T07:38:36;3.90;84.80
29201;DHT22;16244;51.956;12.980;2023-04-03T07:41:04;4.10;79.30
29201;DHT22;16244;51.956;12.980;2023-04-03T07:43:32;3.70;77.00
29201;DHT22;16244;51.956;12.980;2023-04-03T07:46:04;3.40;77.70
29201;DHT22;16244;51.956;12.980;2023-04-03T07:48:32;3.00;79.70
29201;DHT22;16244;51.956;12.980;2023-04-03T07:51:01;2.80;77.20
29201;DHT22;16244;51.956;12.980;2023-04-03T07:53:29;2.60;80.10
29201;DHT22;16244;51.956;12.980;2023-04-03T07:55:59;2.60;80.40
29201;DHT22;16244;51.956;12.980;2023-04-03T07:58:29;2.60;81.40
29201;DHT22;16244;51.956;12.980;2023-04-03T08:00:56;2.50;78.60
29201;DHT22;16244;51.956;12.980;2023-04-03T08:03:25;2.50;78.00
29201;DHT22;16244;51.956;12.980;2023-04-03T08:05:53;2.40;78.90
29201;DHT22;16244;51.956;12.980;2023-04-03T08:08:22;2.50;79.30
29201;DHT22;16244;51.956;12.980;2023-04-03T08:10:51;2.60;79.00
29201;DHT22;16244;51.956;12.980;2023-04-03T08:13:19;2.80;79.40
29201;DHT22;16244;51.956;12.980;2023-04-03T08:15:47;2.90;78.70
29201;DHT22;16244;51.956;12.980;2023-04-03T08:18:15;3.20;78.60
29201;DHT22;16244;51.956;12.980;2023-04-03T08:20:44;3.50;77.20
29201;DHT22;16244;51.956;12.980;2023-04-03T08:23:11;3.50;74.40
29201;DHT22;16244;51.956;12.980;2023-04-03T08:25:41;3.40;77.40
29201;DHT22;16244;51.956;12.980;2023-04-03T08:28:09;3.50;78.70
29201;DHT22;16244;51.956;12.980;2023-04-03T08:30:38;3.80;77.50
29201;DHT22;16244;51.956;12.980;2023-04-03T08:33:06;4.00;74.60
29201;DHT22;16244;51.956;12.980;2023-04-03T08:35:38;4.40;72.70
29201;DHT22;16244;51.956;12.980;2023-04-03T08:38:08;5.10;72.70
29201;DHT22;16244;51.956;12.980;2023-04-03T08:40:36;5.70;73.20
29201;DHT22;16244;51.956;12.980;2023-04-03T08:43:20;6.00;68.40
29201;DHT22;16244;51.956;12.980;2023-04-03T08:45:55;6.60;71.80
29201;DHT22;16244;51.956;12.980;2023-04-03T08:48:25;6.70;65.50
29201;DHT22;16244;51.956;12.980;2023-04-03T08:50:57;6.90;69.40
29201;DHT22;16244;51.956;12.980;2023-04-03T08:53:30;6.80;63.60
29201;DHT22;16244;51.956;12.980;2023-04-03T08:56:00;7.30;66.20
29201;DHT22;16244;51.956;12.980;2023-04-03T08:58:31;6.60;61.80
29201;DHT22;16244;51.956;12.980;2023-04-03T09:01:02;6.70;57.00
29201;DHT22;16244;51.956;12.980;2023-04-03T09:03:32;6.70;66.70
29201;DHT22;16244;51.956;12.980;2023-04-03T09:06:03;7.20;63.90
29201;DHT22;16244;51.956;12.980;2023-04-03T09:08:34;7.10;60.00
29201;DHT22;16244;51.956;12.980;2023-04-03T09:11:09;6.10;59.30
29201;DHT22;16244;51.956;12.980;2023-04-03T09:13:46;5.30;64.00
29201;DHT22;16244;51.956;12.980;2023-04-03T09:16:21;6.00;65.00
29201;DHT22;16244;51.956;12.980;2023-04-03T09:18:59;6.50;57.60
29201;DHT22;16244;51.956;12.980;2023-04-03T09:21:33;6.10;60.50
29201;DHT22;16244;51.956;12.980;2023-04-03T09:24:05;6.10;61.90
29201;DHT22;16244;51.956;12.980;2023-04-03T09:26:36;5.60;60.10
29201;DHT22;16244;51.956;12.980;2023-04-03T09:29:07;4.90;68.50
29201;DHT22;16244;51.956;12.980;2023-04-03T09:31:37;4.50;65.80
29201;DHT22;16244;51.956;12.980;2023-04-03T09:34:08;4.40;68.10
29201;DHT22;16244;51.956;12.980;2023-04-03T09:36:38;4.30;69.70
29201;DHT22;16244;51.956;12.980;2023-04-03T09:39:11;4.10;70.40
29201;DHT22;16244;51.956;12.980;2023-04-03T09:41:38;4.60;67.20
29201;DHT22;16244;51.956;12.980;2023-04-03T09:44:20;5.80;65.70
29201;DHT22;16244;51.956;12.980;2023-04-03T09:46:48;6.50;63.80
29201;DHT22;16244;51.956;12.980;2023-04-03T09:49:17;6.30;62.70
29201;DHT22;16244;51.956;12.980;2023-04-03T09:51:45;6.10;63.50
29201;DHT22;16244;51.956;12.980;2023-04-03T09:54:31;5.70;61.80
29201;DHT22;16244;51.956;12.980;2023-04-03T09:57:01;5.10;58.90
29201;DHT22;16244;51.956;12.980;2023-04-03T09:59:31;4.70;65.80
29201;DHT22;16244;51.956;12.980;2023-04-03T10:02:00;4.70;66.20
29201;DHT22;16244;51.956;12.980;2023-04-03T10:04:40;4.60;64.20
29201;DHT22;16244;51.956;12.980;2023-04-03T10:07:27;4.50;65.50
29201;DHT22;16244;51.956;12.980;2023-04-03T10:09:58;4.60;62.70
29201;DHT22;16244;51.956;12.980;2023-04-03T10:12:26;4.60;64.40
29201;DHT22;16244;51.956;12.980;2023-04-03T10:14:55;4.50;63.80
29201;DHT22;16244;51.956;12.980;2023-04-03T10:17:32;4.60;64.00
29201;DHT22;16244;51.956;12.980;2023-04-03T10:20:09;5.00;61.70
29201;DHT22;16244;51.956;12.980;2023-04-03T10:22:45;5.20;61.90
29201;DHT22;16244;51.956;12.980;2023-04-03T10:25:28;5.30;61.60
29201;DHT22;16244;51.956;12.980;2023-04-03T10:28:01;5.20;61.50
29201;DHT22;16244;51.956;12.980;2023-04-03T10:30:44;5.40;64.10
29201;DHT22;16244;51.956;12.980;2023-04-03T10:33:36;5.20;60.20
29201;DHT22;16244;51.956;12.980;2023-04-03T10:36:21;5.30;61.80
29201;DHT22;16244;51.956;12.980;2023-04-03T10:38:57;5.40;57.30
29201;DHT22;16244;51.956;12.980;2023-04-03T10:41:34;5.40;58.00
29201;DHT22;16244;51.956;12.980;2023-04-03T10:44:15;5.60;57.60
29201;DHT22;16244;51.956;12.980;2023-04-03T10:46:46;5.30;59.10
29201;DHT22;16244;51.956;12.980;2023-04-03T10:49:29;4.80;59.80
29201;DHT22;16244;51.956;12.980;2023-04-03T10:52:04;4.90;59.30
29201;DHT22;16244;51.956;12.980;2023-04-03T10:54:36;4.70;59.90
29201;DHT22;16244;51.956;12.980;2023-04-03T10:57:09;4.70;60.80
29201;DHT22;16244;51.956;12.980;2023-04-03T10:59:39;4.50;60.20
29201;DHT22;16244;51.956;12.980;2023-04-03T11:02:16;5.60;64.90
29201;DHT22;16244;51.956;12.980;2023-04-03T11:04:48;5.80;56.90
29201;DHT22;16244;51.956;12.980;2023-04-03T11:07:19;5.90;61.70
29201;DHT22;16244;51.956;12.980;2023-04-03T11:09:50;6.80;66.90
29201;DHT22;16244;51.956;12.980;2023-04-03T11:12:24;7.90;62.90
29201;DHT22;16244;51.956;12.980;2023-04-03T11:14:55;8.20;62.30
29201;DHT22;16244;51.956;12.980;2023-04-03T11:17:29;7.70;55.70
29201;DHT22;16244;51.956;12.980;2023-04-03T11:20:03;7.00;60.10
29201;DHT22;16244;51.956;12.980;2023-04-03T11:22:37;6.50;58.40
29201;DHT22;16244;51.956;12.980;2023-04-03T11:25:15;5.90;57.00
29201;DHT22;16244;51.956;12.980;2023-04-03T11:27:53;5.50;59.70
29201;DHT22;16244;51.956;12.980;2023-04-03T11:30:25;5.60;56.80
29201;DHT22;16244;51.956;12.980;2023-04-03T11:33:05;5.50;62.90
29201;DHT22;16244;51.956;12.980;2023-04-03T11:35:36;5.30;62.30
29201;DHT22;16244;51.956;12.980;2023-04-03T11:38:05;5.40;60.40
29201;DHT22;16244;51.956;12.980;2023-04-03T11:40:35;5.40;63.60
29201;DHT22;16244;51.956;12.980;2023-04-03T11:43:16;5.60;64.50
29201;DHT22;16244;51.956;12.980;2023-04-03T11:45:53;5.40;61.60
29201;DHT22;16244;51.956;12.980;2023-04-03T11:48:49;5.50;63.80
29201;DHT22;16244;51.956;12.980;2023-04-03T11:51:50;5.60;62.30
29201;DHT22;16244;51.956;12.980;2023-04-03T11:54:46;5.40;60.60
29201;DHT22;16244;51.956;12.980;2023-04-03T11:57:46;5.30;60.00
29201;DHT22;16244;51.956;12.980;2023-04-03T12:00:55;5.20;59.30
29201;DHT22;16244;51.956;12.980;2023-04-03T12:07:01;5.10;58.30
29201;DHT22;16244;51.956;12.980;2023-04-03T12:12:35;5.30;64.30
29201;DHT22;16244;51.956;12.980;2023-04-03T12:15:23;5.30;57.10
29201;DHT22;16244;51.956;12.980;2023-04-03T12:17:52;5.20;59.30
29201;DHT22;16244;51.956;12.980;2023-04-03T12:20:54;5.20;58.50
29201;DHT22;16244;51.956;12.980;2023-04-03T12:23:55;5.20;59.00
29201;DHT22;16244;51.956;12.980;2023-04-03T12:26:26;5.30;62.80
29201;DHT22;16244;51.956;12.980;2023-04-03T12:28:55;5.10;61.90
29201;DHT22;16244;51.956;12.980;2023-04-03T12:31:25;5.10;62.40
29201;DHT22;16244;51.956;12.980;2023-04-03T12:34:05;5.00;63.90
29201;DHT22;16244;51.956;12.980;2023-04-03T12:36:42;5.10;64.20
29201;DHT22;16244;51.956;12.980;2023-04-03T12:39:25;5.30;68.10
29201;DHT22;16244;51.956;12.980;2023-04-03T12:42:09;5.30;63.20
29201;DHT22;16244;51.956;12.980;2023-04-03T12:44:47;5.20;59.60
29201;DHT22;16244;51.956;12.980;2023-04-03T12:47:23;5.00;59.60
29201;DHT22;16244;51.956;12.980;2023-04-03T12:49:53;5.10;62.60
29201;DHT22;16244;51.956;12.980;2023-04-03T12:52:32;5.10;63.80
29201;DHT22;16244;51.956;12.980;2023-04-03T12:55:01;5.00;61.60
29201;DHT22;16244;51.956;12.980;2023-04-03T12:57:30;5.10;60.80
29201;DHT22;16244;51.956;12.980;2023-04-03T12:59:58;5.10;62.30
29201;DHT22;16244;51.956;12.980;2023-04-03T13:02:27;5.20;61.10
29201;DHT22;16244;51.956;12.980;2023-04-03T13:04:57;5.10;60.50
29201;DHT22;16244;51.956;12.980;2023-04-03T13:07:29;5.20;61.50
29201;DHT22;16244;51.956;12.980;2023-04-03T13:10:02;5.30;62.20
29201;DHT22;16244;51.956;12.980;2023-04-03T13:12:30;5.30;64.00
29201;DHT22;16244;51.956;12.980;2023-04-03T13:14:59;5.20;64.00
29201;DHT22;16244;51.956;12.980;2023-04-03T13:17:27;5.30;61.60
29201;DHT22;16244;51.956;12.980;2023-04-03T13:20:10;5.30;64.50
29201;DHT22;16244;51.956;12.980;2023-04-03T13:22:41;5.30;61.10
29201;DHT22;16244;51.956;12.980;2023-04-03T13:25:13;5.40;63.90
29201;DHT22;16244;51.956;12.980;2023-04-03T13:27:42;5.30;59.30
29201;DHT22;16244;51.956;12.980;2023-04-03T13:30:21;5.20;63.50
29201;DHT22;16244;51.956;12.980;2023-04-03T13:32:50;5.50;63.00
29201;DHT22;16244;51.956;12.980;2023-04-03T13:35:32;5.70;64.60
29201;DHT22;16244;51.956;12.980;2023-04-03T13:38:05;5.70;61.90
29201;DHT22;16244;51.956;12.980;2023-04-03T13:40:33;5.70;61.80
29201;DHT22;16244;51.956;12.980;2023-04-03T13:43:14;5.50;65.80
29201;DHT22;16244;51.956;12.980;2023-04-03T13:46:04;5.40;62.10
29201;DHT22;16244;51.956;12.980;2023-04-03T13:48:39;5.20;61.50
29201;DHT22;16244;51.956;12.980;2023-04-03T13:51:20;5.30;61.60
29201;DHT22;16244;51.956;12.980;2023-04-03T13:53:51;5.40;65.90
29201;DHT22;16244;51.956;12.980;2023-04-03T13:56:22;5.40;64.40
29201;DHT22;16244;51.956;12.980;2023-04-03T13:58:55;5.40;58.60
29201;DHT22;16244;51.956;12.980;2023-04-03T14:01:25;5.30;60.40
29201;DHT22;16244;51.956;12.980;2023-04-03T14:03:55;5.20;57.60
29201;DHT22;16244;51.956;12.980;2023-04-03T14:06:25;5.20;60.70
29201;DHT22;16244;51.956;12.980;2023-04-03T14:08:53;5.20;62.00
29201;DHT22;16244;51.956;12.980;2023-04-03T14:11:22;5.30;61.20
29201;DHT22;16244;51.956;12.980;2023-04-03T14:13:51;5.30;61.60
29201;DHT22;16244;51.956;12.980;2023-04-03T14:16:21;5.10;60.90
29201;DHT22;16244;51.956;12.980;2023-04-03T14:18:50;5.10;61.20
29201;DHT22;16244;51.956;12.980;2023-04-03T14:21:19;5.00;61.90
29201;DHT22;16244;51.956;12.980;2023-04-03T14:23:48;4.90;62.70
29201;DHT22;16244;51.956;12.980;2023-04-03T14:26:18;4.90;63.20
29201;DHT22;16244;51.956;12.980;2023-04-03T14:28:48;4.80;60.90
29201;DHT22;16244;51.956;12.980;2023-04-03T14:31:16;4.90;59.90
29201;DHT22;16244;51.956;12.980;2023-04-03T14:33:45;4.90;62.10
29201;DHT22;16244;51.956;12.980;2023-04-03T14:36:13;4.80;59.40
29201;DHT22;16244;51.956;12.980;2023-04-03T14:38:42;4.90;60.50
29201;DHT22;16244;51.956;12.980;2023-04-03T14:41:12;4.90;62.20
29201;DHT22;16244;51.956;12.980;2023-04-03T14:43:40;4.90;61.90
29201;DHT22;16244;51.956;12.980;2023-04-03T14:46:13;4.90;62.70
29201;DHT22;16244;51.956;12.980;2023-04-03T14:48:40;5.00;64.40
29201;DHT22;16244;51.956;12.980;2023-04-03T14:51:10;5.10;63.30
29201;DHT22;16244;51.956;12.980;2023-04-03T14:53:38;5.00;64.00
29201;DHT22;16244;51.956;12.980;2023-04-03T14:56:13;4.90;67.70
29201;DHT22;16244;51.956;12.980;2023-04-03T14:58:41;5.00;67.50
29201;DHT22;16244;51.956;12.980;2023-04-03T15:01:10;5.00;66.80
29201;DHT22;16244;51.956;12.980;2023-04-03T15:03:39;5.00;66.10
29201;DHT22;16244;51.956;12.980;2023-04-03T15:06:08;5.00;65.80
29201;DHT22;16244;51.956;12.980;2023-04-03T15:08:36;4.90;64.00
29201;DHT22;16244;51.956;12.980;2023-04-03T15:11:03;4.80;63.70
29201;DHT22;16244;51.956;12.980;2023-04-03T15:13:32;4.80;64.10
29201;DHT22;16244;51.956;12.980;2023-04-03T15:16:00;4.90;61.30
29201;DHT22;16244;51.956;12.980;2023-04-03T15:18:36;4.90;61.30
29201;DHT22;16244;51.956;12.980;2023-04-03T15:21:05;4.90;63.80
29201;DHT22;16244;51.956;12.980;2023-04-03T15:23:33;4.80;62.50
29201;DHT22;16244;51.956;12.980;2023-04-03T15:26:01;4.70;62.80
29201;DHT22;16244;51.956;12.980;2023-04-03T15:28:32;4.70;63.90
29201;DHT22;16244;51.956;12.980;2023-04-03T15:30:59;4.80;62.90
29201;DHT22;16244;51.956;12.980;2023-04-03T15:33:27;4.90;65.00
29201;DHT22;16244;51.956;12.980;2023-04-03T15:35:55;5.00;62.40
29201;DHT22;16244;51.956;12.980;2023-04-03T15:38:22;5.00;66.00
29201;DHT22;16244;51.956;12.980;2023-04-03T15:40:50;4.90;61.30
29201;DHT22;16244;51.956;12.980;2023-04-03T15:43:18;4.90;65.70
29201;DHT22;16244;51.956;12.980;2023-04-03T15:45:49;4.90;62.40
29201;DHT22;16244;51.956;12.980;2023-04-03T15:48:17;4.90;63.10
29201;DHT22;16244;51.956;12.980;2023-04-03T15:50:44;4.90;63.00
29201;DHT22;16244;51.956;12.980;2023-04-03T15:53:12;4.90;64.60
29201;DHT22;16244;51.956;12.980;2023-04-03T15:55:39;4.90;63.90
29201;DHT22;16244;51.956;12.980;2023-04-03T15:58:08;4.80;62.80
29201;DHT22;16244;51.956;12.980;2023-04-03T16:00:35;4.70;64.00
29201;DHT22;16244;51.956;12.980;2023-04-03T16:03:09;4.70;65.80